Dame Des Tropiques — FQJE — position and weather

sailwx.info

Track history (hours):
 
Tides and Currents Weather Stations Pressure Air Temp Water Temp Dewpoint Dewpoint Depression Visibility Wind Speed Wind Dir Waves Ship Positions

Dame Des Tropiques

Last reported at 2016-Sep-24 22:23 UTC. Time now 2016-Sep-29 11:55 UTC.
Position N 49°27' W 002°32'.

Length 28 m.

Type: Sailing vessel. MMSI: 347002100.

Date/timePositionNaut miles runAvg speedWind from/ knotsBaromVisibWave heightAir tempDewpointWater temp
2016-Sep-24 22:23N 49°27' W 002°32'  
2016-Sep-19 07:03N 49°37' W 001°59'3 5.2
2016-Sep-19 06:33N 49°40' W 002°00'91 6.0
2016-Sep-18 15:33N 50°36' W 000°09'8 7.8
2016-Sep-18 14:32N 50°40' E 000°02'14 1.2
2016-Sep-18 02:28N 50°48' E 000°21'0 0.0
2016-Sep-18 01:22N 50°48' E 000°21'0 0.0
2016-Sep-18 00:28N 50°48' E 000°21'0 0.0
2016-Sep-17 22:16N 50°48' E 000°21'0 0.0
2016-Sep-17 21:28N 50°48' E 000°21'0 0.0
2016-Sep-17 20:28N 50°48' E 000°21'0 0.0
2016-Sep-17 19:10N 50°48' E 000°21'0 0.0
2016-Sep-17 13:29N 50°48' E 000°21'0 0.0
2016-Sep-17 12:29N 50°48' E 000°21'7 3.3
2016-Sep-17 10:29N 50°43' E 000°13'1010.8
2016-Sep-17 09:33N 50°42' W 000°03'1211.6
2016-Sep-17 08:33N 50°42' W 000°21'1111.0
2016-Sep-17 07:31N 50°42' W 000°39'17 8.8
2016-Sep-17 05:33N 50°45' W 001°06'7 6.6
2016-Sep-17 04:33N 50°46' W 001°16'4 0.3
2016-Sep-16 15:32N 50°45' W 001°11'1 0.4
2016-Sep-16 12:33N 50°45' W 001°09'55 5.5
2016-Sep-16 02:33N 49°55' W 000°31'19 9.7
2016-Sep-16 00:33N 49°37' W 000°21'18 8.8
2016-Sep-15 22:33N 49°21' W 000°09'3 3.1
2016-Sep-15 21:31N 49°19' W 000°06'0 0.0
2016-Sep-15 20:31N 49°19' W 000°06'0 0.0
2016-Sep-15 18:31N 49°19' W 000°06'0 0.0
2016-Sep-15 12:31N 49°19' W 000°06'0 0.0
2016-Sep-15 11:19N 49°19' W 000°06'0 0.0
2016-Sep-15 04:31N 49°19' W 000°06'0 0.0
2016-Sep-15 03:31N 49°19' W 000°06'0 0.0
2016-Sep-15 01:31N 49°19' W 000°06'0 0.0
2016-Sep-14 22:31N 49°19' W 000°06'  
Track history (hours):
 
Tides and Currents Weather Stations Pressure Air Temp Water Temp Dewpoint Dewpoint Depression Visibility Wind Speed Wind Dir Waves Ship Positions

Dame Des Tropiques

Last reported at 2016-Sep-24 22:23 UTC. Time now 2016-Sep-29 11:55 UTC.
Position N 49°27' W 002°32'.

Length 28 m.

Type: Sailing vessel. MMSI: 347002100.

Date/timePositionNaut miles runAvg speedWind from/ knotsBaromVisibWave heightAir tempDewpointWater temp
2016-Sep-24 22:23N 49°27' W 002°32'  
2016-Sep-19 07:03N 49°37' W 001°59'3 5.2
2016-Sep-19 06:33N 49°40' W 002°00'91 6.0
2016-Sep-18 15:33N 50°36' W 000°09'8 7.8
2016-Sep-18 14:32N 50°40' E 000°02'14 1.2
2016-Sep-18 02:28N 50°48' E 000°21'0 0.0
2016-Sep-18 01:22N 50°48' E 000°21'0 0.0
2016-Sep-18 00:28N 50°48' E 000°21'0 0.0
2016-Sep-17 22:16N 50°48' E 000°21'0 0.0
2016-Sep-17 21:28N 50°48' E 000°21'0 0.0
2016-Sep-17 20:28N 50°48' E 000°21'0 0.0
2016-Sep-17 19:10N 50°48' E 000°21'0 0.0
2016-Sep-17 13:29N 50°48' E 000°21'0 0.0
2016-Sep-17 12:29N 50°48' E 000°21'7 3.3
2016-Sep-17 10:29N 50°43' E 000°13'1010.8
2016-Sep-17 09:33N 50°42' W 000°03'1211.6
2016-Sep-17 08:33N 50°42' W 000°21'1111.0
2016-Sep-17 07:31N 50°42' W 000°39'17 8.8
2016-Sep-17 05:33N 50°45' W 001°06'7 6.6
2016-Sep-17 04:33N 50°46' W 001°16'4 0.3
2016-Sep-16 15:32N 50°45' W 001°11'1 0.4
2016-Sep-16 12:33N 50°45' W 001°09'55 5.5
2016-Sep-16 02:33N 49°55' W 000°31'19 9.7
2016-Sep-16 00:33N 49°37' W 000°21'18 8.8
2016-Sep-15 22:33N 49°21' W 000°09'3 3.1
2016-Sep-15 21:31N 49°19' W 000°06'0 0.0
2016-Sep-15 20:31N 49°19' W 000°06'0 0.0
2016-Sep-15 18:31N 49°19' W 000°06'0 0.0
2016-Sep-15 12:31N 49°19' W 000°06'0 0.0
2016-Sep-15 11:19N 49°19' W 000°06'0 0.0
2016-Sep-15 04:31N 49°19' W 000°06'0 0.0
2016-Sep-15 03:31N 49°19' W 000°06'0 0.0
2016-Sep-15 01:31N 49°19' W 000°06'0 0.0
2016-Sep-14 22:31N 49°19' W 000°06'  

Dump ship's entire track history